createdAt,value
2018-04-02T00:00:09.678Z,11.40
2018-04-02T00:02:39.752Z,11.45
2018-04-02T00:05:08.829Z,11.42
2018-04-02T00:07:37.966Z,11.50
2018-04-02T00:10:10.211Z,11.54
2018-04-02T00:12:39.562Z,11.52
2018-04-02T00:15:08.647Z,11.47
2018-04-02T00:17:37.702Z,11.42
2018-04-02T00:20:07.872Z,11.39
2018-04-02T00:22:36.937Z,11.20
2018-04-02T00:25:06.514Z,10.93
2018-04-02T00:27:35.637Z,10.94
2018-04-02T00:30:04.914Z,10.69
2018-04-02T00:32:34.015Z,10.88
2018-04-02T00:35:03.158Z,10.94
2018-04-02T00:37:32.196Z,10.92
2018-04-02T00:40:01.561Z,10.81
2018-04-02T00:42:30.738Z,10.88
2018-04-02T00:45:00.475Z,10.80
2018-04-02T00:47:29.544Z,10.58
2018-04-02T00:49:58.642Z,10.59
2018-04-02T00:52:27.812Z,10.78
2018-04-02T00:54:59.894Z,10.82
2018-04-02T00:57:29.324Z,10.87
2018-04-02T00:59:58.382Z,10.76
2018-04-02T01:02:27.626Z,10.79
2018-04-02T01:04:56.759Z,11.11
2018-04-02T01:07:26.027Z,11.42
2018-04-02T01:09:55.098Z,11.53
2018-04-02T01:12:24.671Z,11.40
2018-04-02T01:14:54.037Z,11.19
2018-04-02T01:17:23.202Z,11.01
2018-04-02T01:19:52.293Z,10.74
2018-04-02T01:22:21.629Z,10.70
2018-04-02T01:24:53.726Z,10.51
2018-04-02T01:27:22.850Z,10.54
2018-04-02T01:29:51.963Z,10.89
2018-04-02T01:32:21.153Z,11.24
2018-04-02T01:34:50.514Z,11.23
2018-04-02T01:37:19.759Z,11.01
2018-04-02T01:39:48.817Z,10.77
2018-04-02T01:42:18.073Z,10.74
2018-04-02T01:44:47.109Z,10.76
2018-04-02T01:47:16.234Z,10.56
2018-04-02T01:49:45.433Z,10.33
2018-04-02T01:52:14.643Z,10.28
2018-04-02T01:54:43.749Z,10.19
2018-04-02T01:57:12.939Z,10.10
2018-04-02T01:59:42.221Z,10.00
2018-04-02T02:02:11.319Z,9.96
2018-04-02T02:04:40.501Z,9.83
2018-04-02T02:07:09.752Z,9.77
2018-04-02T02:09:38.809Z,9.68
2018-04-02T02:12:07.886Z,9.62
2018-04-02T02:14:36.979Z,9.66
2018-04-02T02:17:06.435Z,9.60
2018-04-02T02:19:35.483Z,9.56
2018-04-02T02:22:07.683Z,9.55
2018-04-02T02:24:36.790Z,9.59
2018-04-02T02:27:05.958Z,9.60
2018-04-02T02:29:35.269Z,9.62
2018-04-02T02:32:04.376Z,9.66
2018-04-02T02:34:33.436Z,9.78
2018-04-02T02:37:02.667Z,9.78
2018-04-02T02:39:31.857Z,9.85
2018-04-02T02:42:01.125Z,9.87
2018-04-02T02:44:30.263Z,9.90
2018-04-02T02:46:59.457Z,9.88
2018-04-02T02:49:28.581Z,9.78
2018-04-02T02:51:57.728Z,9.72
2018-04-02T02:54:26.845Z,9.65
2018-04-02T02:56:56.142Z,9.59
2018-04-02T02:59:25.330Z,9.51
2018-04-02T03:01:54.437Z,9.45
2018-04-02T03:04:23.664Z,9.40
2018-04-02T03:06:52.863Z,9.40
2018-04-02T03:09:22.048Z,9.41
2018-04-02T03:11:51.258Z,9.48
2018-04-02T03:14:20.654Z,9.49
2018-04-02T03:16:52.808Z,9.37
2018-04-02T03:19:22.026Z,9.24
2018-04-02T03:21:54.193Z,9.09
2018-04-02T03:24:23.679Z,9.00
2018-04-02T03:26:52.743Z,8.95
2018-04-02T03:29:22.078Z,8.92
2018-04-02T03:31:51.180Z,9.02
2018-04-02T03:34:20.258Z,9.08
2018-04-02T03:36:49.486Z,9.07
2018-04-02T03:39:18.699Z,9.15
2018-04-02T03:41:47.830Z,9.15
2018-04-02T03:44:16.983Z,9.16
2018-04-02T03:46:46.112Z,9.28
2018-04-02T03:49:15.560Z,9.37
2018-04-02T03:51:44.673Z,9.31
2018-04-02T03:54:13.821Z,9.29
2018-04-02T03:56:42.982Z,9.18
2018-04-02T03:59:12.115Z,9.07
2018-04-02T04:01:41.301Z,8.90
2018-04-02T04:04:10.604Z,8.80
2018-04-02T04:06:39.714Z,8.75
2018-04-02T04:09:11.617Z,8.71
2018-04-02T04:11:40.663Z,8.74
2018-04-02T04:14:09.858Z,8.79
2018-04-02T04:16:39.125Z,8.80
2018-04-02T04:19:08.483Z,8.94
2018-04-02T04:21:37.815Z,9.00
2018-04-02T04:24:06.912Z,9.17
2018-04-02T04:26:36.077Z,9.39
2018-04-02T04:29:05.509Z,9.49
2018-04-02T04:31:34.826Z,9.57
2018-04-02T04:34:03.954Z,9.76
2018-04-02T04:36:33.199Z,9.88
2018-04-02T04:39:05.444Z,10.01
2018-04-02T04:41:34.684Z,10.01
2018-04-02T04:44:03.944Z,10.04
2018-04-02T04:46:33.150Z,9.98
2018-04-02T04:49:02.384Z,9.81
2018-04-02T04:51:31.506Z,9.77
2018-04-02T04:54:00.574Z,9.75
2018-04-02T04:56:29.723Z,9.95
2018-04-02T04:58:59.089Z,10.09
2018-04-02T05:01:28.342Z,10.12
2018-04-02T05:03:57.643Z,10.18
2018-04-02T05:06:26.880Z,10.16
2018-04-02T05:08:55.970Z,10.26
2018-04-02T05:11:25.222Z,10.35
2018-04-02T05:13:54.419Z,10.40
2018-04-02T05:16:24.113Z,10.44
2018-04-02T05:18:53.141Z,10.39
2018-04-02T05:21:22.353Z,10.26
2018-04-02T05:23:51.405Z,10.27
2018-04-02T05:26:20.429Z,10.32
2018-04-02T05:28:51.247Z,10.43
2018-04-02T05:31:20.479Z,10.33
2018-04-02T05:33:50.154Z,10.29
2018-04-02T05:36:19.381Z,10.70
2018-04-02T05:38:51.880Z,10.74
2018-04-02T05:41:21.164Z,10.98
2018-04-02T05:43:50.381Z,11.36
2018-04-02T05:46:19.413Z,11.50
2018-04-02T05:48:48.916Z,11.70
2018-04-02T05:51:18.305Z,11.73
2018-04-02T05:53:47.473Z,11.68
2018-04-02T05:56:16.540Z,11.66
2018-04-02T05:58:45.775Z,11.62
2018-04-02T06:01:14.814Z,11.70
2018-04-02T06:03:43.905Z,11.76
2018-04-02T06:06:13.791Z,11.84
2018-04-02T06:08:43.050Z,11.95
2018-04-02T06:11:12.265Z,12.01
2018-04-02T06:13:41.427Z,12.01
2018-04-02T06:16:11.601Z,12.14
2018-04-02T06:18:40.662Z,12.08
2018-04-02T06:21:09.858Z,12.13
2018-04-02T06:23:38.980Z,12.16
2018-04-02T06:26:08.063Z,12.18
2018-04-02T06:28:37.322Z,12.44
2018-04-02T06:31:06.431Z,12.58
2018-04-02T06:33:35.780Z,12.63
2018-04-02T06:36:04.854Z,12.77
2018-04-02T06:38:34.054Z,12.82
2018-04-02T06:41:06.414Z,12.93
2018-04-02T06:43:35.643Z,13.07
2018-04-02T06:46:04.842Z,13.08
2018-04-02T06:48:33.877Z,13.18
2018-04-02T06:51:06.210Z,13.27
2018-04-02T06:53:38.382Z,13.25
2018-04-02T06:56:07.575Z,13.43
2018-04-02T06:58:36.610Z,13.52
2018-04-02T07:01:05.811Z,13.74
2018-04-02T07:03:38.045Z,14.02
2018-04-02T07:06:07.181Z,14.06
2018-04-02T07:08:39.395Z,14.32
2018-04-02T07:11:08.645Z,14.34
2018-04-02T07:13:37.751Z,14.54
2018-04-02T07:16:06.915Z,14.60
2018-04-02T07:18:36.169Z,14.34
2018-04-02T07:21:05.458Z,14.43
2018-04-02T07:23:35.013Z,14.53
2018-04-02T07:26:04.141Z,14.47
2018-04-02T07:28:33.287Z,14.44
2018-04-02T07:31:02.500Z,14.51
2018-04-02T07:33:31.536Z,14.78
2018-04-02T07:36:01.669Z,14.92
2018-04-02T07:38:30.867Z,15.00
2018-04-02T07:41:00.095Z,15.05
2018-04-02T07:43:29.267Z,14.87
2018-04-02T07:45:58.381Z,15.10
2018-04-02T07:48:27.718Z,15.29
2018-04-02T07:50:56.859Z,15.35
2018-04-02T07:53:26.068Z,15.59
2018-04-02T07:55:55.202Z,15.30
2018-04-02T07:58:24.324Z,15.64
2018-04-02T08:00:53.313Z,15.52
2018-04-02T08:03:25.446Z,15.59
2018-04-02T08:05:55.478Z,15.19
2018-04-02T08:08:24.750Z,15.12
2018-04-02T08:10:53.926Z,15.09
2018-04-02T08:13:23.075Z,15.52
2018-04-02T08:15:52.224Z,15.32
2018-04-02T08:18:21.412Z,15.65
2018-04-02T08:20:50.870Z,15.44
2018-04-02T08:23:20.381Z,15.54
2018-04-02T08:25:49.517Z,15.49
2018-04-02T08:28:18.736Z,15.56
2018-04-02T08:30:47.974Z,15.64
2018-04-02T08:33:17.160Z,15.40
2018-04-02T08:35:46.323Z,15.59
2018-04-02T08:38:15.552Z,15.73
2018-04-02T08:40:44.838Z,15.77
2018-04-02T08:43:14.046Z,15.85
2018-04-02T08:45:43.274Z,15.60
2018-04-02T08:48:18.335Z,15.65
2018-04-02T08:50:47.529Z,15.75
2018-04-02T08:53:16.804Z,15.64
2018-04-02T08:55:46.178Z,15.92
2018-04-02T08:58:15.259Z,15.61
2018-04-02T09:00:44.447Z,15.77
2018-04-02T09:03:13.803Z,15.78
2018-04-02T09:05:42.957Z,15.87
2018-04-02T09:08:12.310Z,16.27
2018-04-02T09:10:41.370Z,16.04
2018-04-02T09:13:10.549Z,16.15
2018-04-02T09:15:42.861Z,16.11
2018-04-02T09:18:11.913Z,16.33
2018-04-02T09:20:44.118Z,16.27
2018-04-02T09:23:13.394Z,16.36
2018-04-02T09:25:42.580Z,16.24
2018-04-02T09:28:11.906Z,16.10
2018-04-02T09:30:41.012Z,16.19
2018-04-02T09:33:10.098Z,16.16
2018-04-02T09:35:39.691Z,16.25
2018-04-02T09:38:08.797Z,16.34
2018-04-02T09:40:38.140Z,16.18
2018-04-02T09:43:07.375Z,16.52
2018-04-02T09:45:36.579Z,16.35
2018-04-02T09:48:05.905Z,16.76
2018-04-02T09:50:34.982Z,17.03
2018-04-02T09:53:10.070Z,17.04
2018-04-02T09:55:39.304Z,16.98
2018-04-02T09:58:08.634Z,17.22
2018-04-02T10:00:40.899Z,17.06
2018-04-02T10:03:10.398Z,17.27
2018-04-02T10:05:40.598Z,17.05
2018-04-02T10:08:09.865Z,17.53
2018-04-02T10:10:38.961Z,17.56
2018-04-02T10:13:08.175Z,17.23
2018-04-02T10:15:37.305Z,17.02
2018-04-02T10:18:06.407Z,17.31
2018-04-02T10:20:35.650Z,17.34
2018-04-02T10:23:04.860Z,17.64
2018-04-02T10:25:37.025Z,17.54
2018-04-02T10:28:06.163Z,17.54
2018-04-02T10:30:35.372Z,17.40
2018-04-02T10:33:04.588Z,17.45
2018-04-02T10:35:34.013Z,17.43
2018-04-02T10:38:03.432Z,17.49
2018-04-02T10:40:32.778Z,17.88
2018-04-02T10:43:02.080Z,18.10
2018-04-02T10:45:31.269Z,17.83
2018-04-02T10:48:00.624Z,17.67
2018-04-02T10:50:30.223Z,17.59
2018-04-02T10:53:00.057Z,17.38
2018-04-02T10:55:29.011Z,17.82
2018-04-02T10:57:58.087Z,17.44
2018-04-02T11:00:27.529Z,17.39
2018-04-02T11:02:56.699Z,17.29
2018-04-02T11:05:25.889Z,17.08
2018-04-02T11:07:55.339Z,17.65
2018-04-02T11:10:24.695Z,17.72
2018-04-02T11:12:53.917Z,17.51
2018-04-02T11:15:23.082Z,17.54
2018-04-02T11:17:52.210Z,17.23
2018-04-02T11:20:21.582Z,17.44
2018-04-02T11:22:50.746Z,17.70
2018-04-02T11:25:19.909Z,17.60
2018-04-02T11:27:49.639Z,17.17
2018-04-02T11:30:18.789Z,17.68
2018-04-02T11:32:47.947Z,17.25
2018-04-02T11:35:17.397Z,16.89
2018-04-02T11:37:46.450Z,16.75
2018-04-02T11:40:15.731Z,16.85
2018-04-02T11:42:47.971Z,17.17
2018-04-02T11:45:17.199Z,17.12
2018-04-02T11:47:49.477Z,17.16
2018-04-02T11:50:18.707Z,17.17
2018-04-02T11:52:47.925Z,17.29
2018-04-02T11:55:20.131Z,17.22
2018-04-02T11:57:49.303Z,17.57
2018-04-02T12:00:18.653Z,17.95
2018-04-02T12:02:47.795Z,17.65
2018-04-02T12:05:17.110Z,17.77
2018-04-02T12:07:46.454Z,17.54
2018-04-02T12:10:15.490Z,17.50
2018-04-02T12:12:45.194Z,17.28
2018-04-02T12:15:14.539Z,17.27
2018-04-02T12:17:43.611Z,17.72
2018-04-02T12:20:12.743Z,17.61
2018-04-02T12:22:42.679Z,16.91
2018-04-02T12:25:11.876Z,17.45
2018-04-02T12:27:41.150Z,17.26
2018-04-02T12:30:13.226Z,16.93
2018-04-02T12:32:42.472Z,17.46
2018-04-02T12:35:11.733Z,17.45
2018-04-02T12:37:40.819Z,17.71
2018-04-02T12:40:10.075Z,17.67
2018-04-02T12:42:39.288Z,17.69
2018-04-02T12:45:08.429Z,17.57
2018-04-02T12:47:37.588Z,17.41
2018-04-02T12:50:06.734Z,17.20
2018-04-02T12:52:35.947Z,17.47
2018-04-02T12:55:05.080Z,17.51
2018-04-02T12:57:34.189Z,17.63
2018-04-02T13:00:03.489Z,17.45
2018-04-02T13:02:32.514Z,17.38
2018-04-02T13:05:01.663Z,17.43
2018-04-02T13:07:30.958Z,17.64
2018-04-02T13:10:00.318Z,17.81
2018-04-02T13:12:29.349Z,17.97
2018-04-02T13:15:01.526Z,18.09
2018-04-02T13:17:30.763Z,18.04
2018-04-02T13:19:59.821Z,18.36
2018-04-02T13:22:29.231Z,18.24
2018-04-02T13:24:58.421Z,18.19
2018-04-02T13:27:28.167Z,18.35
2018-04-02T13:29:57.371Z,17.93
2018-04-02T13:32:29.661Z,18.28
2018-04-02T13:34:58.957Z,18.26
2018-04-02T13:37:28.151Z,18.34
2018-04-02T13:39:57.423Z,18.23
2018-04-02T13:42:26.506Z,18.17
2018-04-02T13:44:58.672Z,18.04
2018-04-02T13:47:27.893Z,18.58
2018-04-02T13:49:57.195Z,18.75
2018-04-02T13:52:26.583Z,18.79
2018-04-02T13:54:55.792Z,18.41
2018-04-02T13:57:24.998Z,18.35
2018-04-02T13:59:54.325Z,18.27
2018-04-02T14:02:23.524Z,18.21
2018-04-02T14:04:52.691Z,18.37
2018-04-02T14:07:21.821Z,18.41
2018-04-02T14:09:51.026Z,18.49
2018-04-02T14:12:20.267Z,18.51
2018-04-02T14:14:49.517Z,18.41
2018-04-02T14:17:18.770Z,18.44
2018-04-02T14:19:48.010Z,18.38
2018-04-02T14:22:20.051Z,18.32
2018-04-02T14:24:49.491Z,18.00
2018-04-02T14:27:18.562Z,18.09
2018-04-02T14:29:47.650Z,18.44
2018-04-02T14:32:16.912Z,18.67
2018-04-02T14:34:46.118Z,18.77
2018-04-02T14:37:15.179Z,18.57
2018-04-02T14:39:44.580Z,18.60
2018-04-02T14:42:13.737Z,19.11
2018-04-02T14:44:42.833Z,19.21
2018-04-02T14:47:11.941Z,20.09
2018-04-02T14:49:41.323Z,20.17
2018-04-02T14:52:10.560Z,20.27
2018-04-02T14:54:39.774Z,20.07
2018-04-02T14:57:09.120Z,19.74
2018-04-02T14:59:38.459Z,20.60
2018-04-02T15:02:07.518Z,19.91
2018-04-02T15:04:36.724Z,20.00
2018-04-02T15:07:05.847Z,20.21
2018-04-02T15:09:35.146Z,20.06
2018-04-02T15:12:04.331Z,19.53
2018-04-02T15:14:33.609Z,18.71
2018-04-02T15:17:02.719Z,18.08
2018-04-02T15:19:31.978Z,17.91
2018-04-02T15:22:01.120Z,18.06
2018-04-02T15:24:30.364Z,18.75
2018-04-02T15:26:59.644Z,18.82
2018-04-02T15:29:28.843Z,19.29
2018-04-02T15:31:57.898Z,19.82
2018-04-02T15:34:27.011Z,18.84
2018-04-02T15:36:56.229Z,19.26
2018-04-02T15:39:25.340Z,18.52
2018-04-02T15:41:54.414Z,17.80
2018-04-02T15:44:23.698Z,18.79
2018-04-02T15:46:52.788Z,18.72
2018-04-02T15:49:22.014Z,19.08
2018-04-02T15:51:51.110Z,19.40
2018-04-02T15:54:20.346Z,19.39
2018-04-02T15:56:49.437Z,19.01
2018-04-02T15:59:18.677Z,18.79
2018-04-02T16:01:47.770Z,19.01
2018-04-02T16:04:17.038Z,18.54
2018-04-02T16:06:46.132Z,18.57
2018-04-02T16:09:15.555Z,18.26
2018-04-02T16:11:44.729Z,18.04
2018-04-02T16:14:14.239Z,17.84
2018-04-02T16:16:43.606Z,18.00
2018-04-02T16:19:13.182Z,17.81
2018-04-02T16:21:42.399Z,17.33
2018-04-02T16:24:11.644Z,17.32
2018-04-02T16:26:40.694Z,17.14
2018-04-02T16:29:09.944Z,16.75
2018-04-02T16:31:39.110Z,16.68
2018-04-02T16:34:08.282Z,16.22
2018-04-02T16:36:37.696Z,15.93
2018-04-02T16:39:06.909Z,15.67
2018-04-02T16:41:36.281Z,15.62
2018-04-02T16:44:05.439Z,15.38
2018-04-02T16:46:34.634Z,15.36
2018-04-02T16:49:03.919Z,15.13
2018-04-02T16:51:33.112Z,14.85
2018-04-02T16:54:02.306Z,14.84
2018-04-02T16:56:31.485Z,14.93
2018-04-02T16:59:00.734Z,14.94
2018-04-02T17:01:29.831Z,14.99
2018-04-02T17:03:58.901Z,14.90
2018-04-02T17:06:28.825Z,14.74
2018-04-02T17:08:58.143Z,14.72
2018-04-02T17:11:27.239Z,14.80
2018-04-02T17:13:56.301Z,14.72
2018-04-02T17:16:25.324Z,14.72
2018-04-02T17:18:54.425Z,14.77
2018-04-02T17:21:23.839Z,14.77
2018-04-02T17:23:53.133Z,14.65
2018-04-02T17:26:22.280Z,14.60
2018-04-02T17:28:51.623Z,14.48
2018-04-02T17:31:20.828Z,14.48
2018-04-02T17:33:49.875Z,14.45
2018-04-02T17:36:19.175Z,14.47
2018-04-02T17:38:48.517Z,14.55
2018-04-02T17:41:17.571Z,14.51
2018-04-02T17:43:46.998Z,14.57
2018-04-02T17:46:16.103Z,14.47
2018-04-02T17:48:45.150Z,14.48
2018-04-02T17:51:14.457Z,14.46
2018-04-02T17:53:43.614Z,14.30
2018-04-02T17:56:12.701Z,14.19
2018-04-02T17:58:41.655Z,14.04
2018-04-02T18:01:10.695Z,14.03
2018-04-02T18:03:39.738Z,13.94
2018-04-02T18:06:08.757Z,13.85
2018-04-02T18:08:38.091Z,13.73
2018-04-02T18:11:07.146Z,13.50
2018-04-02T18:13:36.331Z,13.28
2018-04-02T18:16:05.584Z,13.18
2018-04-02T18:18:34.717Z,13.17
2018-04-02T18:21:04.018Z,13.27
2018-04-02T18:23:33.160Z,13.01
2018-04-02T18:26:02.326Z,13.13
2018-04-02T18:28:31.422Z,12.91
2018-04-02T18:31:00.387Z,12.77
2018-04-02T18:33:29.360Z,12.71
2018-04-02T18:35:58.606Z,12.71
2018-04-02T18:38:27.759Z,12.42
2018-04-02T18:40:56.790Z,12.43
2018-04-02T18:43:26.261Z,12.57
2018-04-02T18:45:55.388Z,12.07
2018-04-02T18:48:24.654Z,12.40
2018-04-02T18:50:53.990Z,12.89
2018-04-02T18:53:23.198Z,13.22
2018-04-02T18:55:52.491Z,13.63
2018-04-02T18:58:21.486Z,13.47
2018-04-02T19:00:50.586Z,13.45
2018-04-02T19:03:19.885Z,13.30
2018-04-02T19:05:49.126Z,13.24
2018-04-02T19:08:18.165Z,13.09
2018-04-02T19:10:47.226Z,12.84
2018-04-02T19:13:16.591Z,12.68
2018-04-02T19:15:45.883Z,12.31
2018-04-02T19:18:15.035Z,12.19
2018-04-02T19:20:44.283Z,12.09
2018-04-02T19:23:13.441Z,12.02
2018-04-02T19:25:42.573Z,12.22
2018-04-02T19:28:11.614Z,12.09
2018-04-02T19:30:40.793Z,12.31
2018-04-02T19:33:09.776Z,12.11
2018-04-02T19:35:38.814Z,12.02
2018-04-02T19:38:07.894Z,11.73
2018-04-02T19:40:37.183Z,11.70
2018-04-02T19:43:06.370Z,11.78
2018-04-02T19:45:35.439Z,11.81
2018-04-02T19:48:04.562Z,11.78
2018-04-02T19:50:33.795Z,11.82
2018-04-02T19:53:03.079Z,11.83
2018-04-02T19:55:32.193Z,11.77
2018-04-02T19:58:01.339Z,11.76
2018-04-02T20:00:30.580Z,11.80
2018-04-02T20:02:59.689Z,11.85
2018-04-02T20:05:28.742Z,11.82
2018-04-02T20:07:58.069Z,11.73
2018-04-02T20:10:27.181Z,11.73
2018-04-02T20:12:56.155Z,11.64
2018-04-02T20:15:25.110Z,11.61
2018-04-02T20:17:54.197Z,11.53
2018-04-02T20:20:23.511Z,11.47
2018-04-02T20:22:52.655Z,11.44
2018-04-02T20:25:21.699Z,11.38
2018-04-02T20:27:50.930Z,11.22
2018-04-02T20:30:20.118Z,11.28
2018-04-02T20:32:49.240Z,11.12
2018-04-02T20:35:18.518Z,11.06
2018-04-02T20:37:47.582Z,11.06
2018-04-02T20:40:16.840Z,10.90
2018-04-02T20:42:45.973Z,10.75
2018-04-02T20:45:15.785Z,10.75
2018-04-02T20:47:44.849Z,10.66
2018-04-02T20:50:13.985Z,10.47
2018-04-02T20:52:43.309Z,10.39
2018-04-02T20:55:13.053Z,10.21
2018-04-02T20:57:42.114Z,10.11
2018-04-02T21:00:11.519Z,10.18
2018-04-02T21:02:40.926Z,10.27
2018-04-02T21:05:10.059Z,10.22
2018-04-02T21:07:39.189Z,10.13
2018-04-02T21:10:08.650Z,10.66
2018-04-02T21:12:37.809Z,10.48
2018-04-02T21:15:07.098Z,10.99
2018-04-02T21:17:36.230Z,10.88
2018-04-02T21:20:05.416Z,10.76
2018-04-02T21:22:34.644Z,10.68
2018-04-02T21:25:03.938Z,10.57
2018-04-02T21:27:33.013Z,10.48
2018-04-02T21:30:02.119Z,10.43
2018-04-02T21:32:31.173Z,10.37
2018-04-02T21:35:00.617Z,10.45
2018-04-02T21:37:29.716Z,10.65
2018-04-02T21:39:58.772Z,10.65
2018-04-02T21:42:28.133Z,10.62
2018-04-02T21:44:57.204Z,10.73
2018-04-02T21:47:26.399Z,10.82
2018-04-02T21:49:55.725Z,10.58
2018-04-02T21:52:24.770Z,10.35
2018-04-02T21:54:53.999Z,10.47
2018-04-02T21:57:23.298Z,10.63
2018-04-02T21:59:52.371Z,10.68
2018-04-02T22:02:21.570Z,10.91
2018-04-02T22:04:50.769Z,10.82
2018-04-02T22:07:22.049Z,10.83
2018-04-02T22:09:51.205Z,11.12
2018-04-02T22:12:20.339Z,11.05
2018-04-02T22:14:49.530Z,11.05
2018-04-02T22:17:18.950Z,11.21
2018-04-02T22:19:48.054Z,11.08
2018-04-02T22:22:17.239Z,11.09
2018-04-02T22:24:46.446Z,11.26
2018-04-02T22:27:15.517Z,11.20
2018-04-02T22:29:44.726Z,11.26
2018-04-02T22:32:13.890Z,11.21
2018-04-02T22:34:43.104Z,11.50
2018-04-02T22:37:12.379Z,11.52
2018-04-02T22:39:41.811Z,11.25
2018-04-02T22:42:11.151Z,11.46
2018-04-02T22:44:40.547Z,11.53
2018-04-02T22:47:09.698Z,11.52
2018-04-02T22:49:38.891Z,11.50
2018-04-02T22:52:08.185Z,11.33
2018-04-02T22:54:37.423Z,11.29
2018-04-02T22:57:06.608Z,10.51
2018-04-02T22:59:35.946Z,10.06
2018-04-02T23:02:08.089Z,9.73
2018-04-02T23:04:37.248Z,9.47
2018-04-02T23:07:06.677Z,9.29
2018-04-02T23:09:36.012Z,9.21
2018-04-02T23:12:05.046Z,9.12
2018-04-02T23:14:34.255Z,9.07
2018-04-02T23:17:03.451Z,8.98
2018-04-02T23:19:32.689Z,9.00
2018-04-02T23:22:01.906Z,9.27
2018-04-02T23:24:31.114Z,9.42
2018-04-02T23:27:00.234Z,9.49
2018-04-02T23:29:29.566Z,9.51
2018-04-02T23:31:58.695Z,9.60
2018-04-02T23:34:27.843Z,9.58
2018-04-02T23:36:56.933Z,9.60
2018-04-02T23:39:26.361Z,9.50
2018-04-02T23:41:56.053Z,9.35
2018-04-02T23:44:25.133Z,9.23
2018-04-02T23:46:54.555Z,9.18
2018-04-02T23:49:23.787Z,9.08
2018-04-02T23:51:52.942Z,9.08
2018-04-02T23:54:22.196Z,9.05
2018-04-02T23:56:51.225Z,9.00
2018-04-02T23:59:20.326Z,8.97
